createdAt,value
2022-10-11T00:00:42.650Z,0.00
2022-10-11T00:01:42.687Z,0.00
2022-10-11T00:02:42.604Z,0.00
2022-10-11T00:03:42.590Z,0.00
2022-10-11T00:04:42.562Z,0.00
2022-10-11T00:05:42.542Z,0.00
2022-10-11T00:06:42.519Z,0.00
2022-10-11T00:07:42.496Z,0.00
2022-10-11T00:08:42.478Z,0.00
2022-10-11T00:09:42.551Z,0.00
2022-10-11T00:10:42.439Z,0.00
2022-10-11T00:11:42.410Z,0.00
2022-10-11T00:12:42.399Z,0.00
2022-10-11T00:13:42.375Z,0.00
2022-10-11T00:14:42.364Z,0.00
2022-10-11T00:15:42.332Z,0.00
2022-10-11T00:16:42.304Z,0.00
2022-10-11T00:17:42.285Z,0.00
2022-10-11T00:18:42.267Z,0.00
2022-10-11T00:19:42.249Z,0.00
2022-10-11T00:20:42.225Z,0.00
2022-10-11T00:21:42.209Z,0.00
2022-10-11T00:22:42.180Z,0.00
2022-10-11T00:23:42.165Z,0.00
2022-10-11T00:24:42.145Z,0.00
2022-10-11T00:25:42.131Z,0.00
2022-10-11T00:26:46.408Z,0.00
2022-10-11T00:27:42.075Z,0.00
2022-10-11T00:28:42.107Z,0.00
2022-10-11T00:29:42.027Z,0.00
2022-10-11T00:30:42.015Z,0.00
2022-10-11T00:31:41.990Z,0.00
2022-10-11T00:32:41.971Z,0.00
2022-10-11T00:33:41.950Z,0.00
2022-10-11T00:34:41.925Z,0.00
2022-10-11T00:35:41.909Z,0.00
2022-10-11T00:36:41.882Z,0.00
2022-10-11T00:37:41.856Z,0.00
2022-10-11T00:38:41.838Z,0.00
2022-10-11T00:39:41.814Z,0.00
2022-10-11T00:40:41.798Z,0.00
2022-10-11T00:41:41.774Z,0.00
2022-10-11T00:42:41.752Z,0.00
2022-10-11T00:43:41.735Z,0.00
2022-10-11T00:44:41.718Z,0.00
2022-10-11T00:45:41.683Z,0.00
2022-10-11T00:46:41.690Z,0.00
2022-10-11T00:47:41.658Z,0.00
2022-10-11T00:48:41.625Z,0.00
2022-10-11T00:49:41.596Z,0.00
2022-10-11T00:50:41.587Z,0.00
2022-10-11T00:51:41.555Z,0.00
2022-10-11T00:52:41.541Z,0.00
2022-10-11T00:53:41.510Z,0.00
2022-10-11T00:54:41.492Z,0.00
2022-10-11T00:55:41.469Z,0.00
2022-10-11T00:56:41.458Z,0.00
2022-10-11T00:57:41.420Z,0.00
2022-10-11T00:58:41.408Z,0.00
2022-10-11T00:59:41.386Z,0.00
2022-10-11T01:00:41.356Z,0.00
2022-10-11T01:01:41.392Z,0.00
2022-10-11T01:02:41.311Z,0.00
2022-10-11T01:03:41.287Z,0.00
2022-10-11T01:04:41.280Z,0.00
2022-10-11T01:05:41.250Z,0.00
2022-10-11T01:06:41.219Z,0.00
2022-10-11T01:07:41.201Z,0.00
2022-10-11T01:08:41.178Z,0.00
2022-10-11T01:09:41.158Z,0.00
2022-10-11T01:10:41.138Z,0.00
2022-10-11T01:11:41.113Z,0.00
2022-10-11T01:12:41.096Z,0.00
2022-10-11T01:13:41.072Z,0.00
2022-10-11T01:14:41.053Z,0.00
2022-10-11T01:15:41.023Z,0.00
2022-10-11T01:16:41.011Z,0.00
2022-10-11T01:17:40.979Z,0.00
2022-10-11T01:18:40.958Z,0.00
2022-10-11T01:19:40.936Z,0.00
2022-10-11T01:20:40.913Z,0.00
2022-10-11T01:21:40.893Z,0.00
2022-10-11T01:22:40.873Z,0.00
2022-10-11T01:23:40.857Z,0.00
2022-10-11T01:24:40.824Z,0.00
2022-10-11T01:25:40.802Z,0.00
2022-10-11T01:26:40.777Z,0.00
2022-10-11T01:27:40.757Z,0.00
2022-10-11T01:28:40.814Z,0.00
2022-10-11T01:29:40.710Z,0.00
2022-10-11T01:30:40.701Z,0.00
2022-10-11T01:31:40.758Z,0.00
2022-10-11T01:32:40.640Z,0.00
2022-10-11T01:33:40.624Z,0.00
2022-10-11T01:34:40.600Z,0.00
2022-10-11T01:35:40.573Z,0.00
2022-10-11T01:36:40.555Z,0.00
2022-10-11T01:37:40.537Z,0.00
2022-10-11T01:38:40.514Z,0.00
2022-10-11T01:39:40.512Z,0.00
2022-10-11T01:40:40.463Z,0.00
2022-10-11T01:41:40.468Z,0.00
2022-10-11T01:42:40.441Z,0.00
2022-10-11T01:43:40.397Z,0.00
2022-10-11T01:44:40.373Z,0.00
2022-10-11T01:45:40.349Z,0.00
2022-10-11T01:46:40.334Z,0.00
2022-10-11T01:47:40.304Z,0.00
2022-10-11T01:48:40.294Z,0.00
2022-10-11T01:49:40.258Z,0.00
2022-10-11T01:50:40.241Z,0.00
2022-10-11T01:51:43.000Z,0.00
2022-10-11T01:52:40.191Z,0.00
2022-10-11T01:53:40.181Z,0.00
2022-10-11T01:55:07.489Z,0.00
2022-10-11T01:55:40.138Z,0.00
2022-10-11T01:56:40.106Z,0.00
2022-10-11T01:57:40.083Z,0.00
2022-10-11T01:58:40.061Z,0.00
2022-10-11T01:59:40.042Z,0.00
2022-10-11T02:00:40.017Z,0.00
2022-10-11T02:01:40.046Z,0.00
2022-10-11T02:02:39.987Z,0.00
2022-10-11T02:03:39.951Z,0.00
2022-10-11T02:04:39.925Z,0.00
2022-10-11T02:05:39.901Z,0.00
2022-10-11T02:06:39.898Z,0.00
2022-10-11T02:07:39.856Z,0.00
2022-10-11T02:08:39.868Z,0.00
2022-10-11T02:09:39.810Z,0.00
2022-10-11T02:10:39.791Z,0.00
2022-10-11T02:11:39.789Z,0.00
2022-10-11T02:12:39.745Z,0.00
2022-10-11T02:13:39.735Z,0.00
2022-10-11T02:14:39.704Z,0.00
2022-10-11T02:15:39.680Z,0.00
2022-10-11T02:16:39.655Z,0.00
2022-10-11T02:17:39.633Z,0.00
2022-10-11T02:18:39.611Z,0.00
2022-10-11T02:19:39.600Z,0.00
2022-10-11T02:20:39.567Z,0.00
2022-10-11T02:21:39.545Z,0.00
2022-10-11T02:22:39.521Z,0.00
2022-10-11T02:23:39.500Z,0.00
2022-10-11T02:24:39.481Z,0.00
2022-10-11T02:25:39.454Z,0.00
2022-10-11T02:26:39.440Z,0.00
2022-10-11T02:27:39.410Z,0.00
2022-10-11T02:28:39.500Z,0.00
2022-10-11T02:29:39.364Z,0.00
2022-10-11T02:30:39.341Z,0.00
2022-10-11T02:31:39.318Z,0.00
2022-10-11T02:32:39.299Z,0.00
2022-10-11T02:33:39.285Z,0.00
2022-10-11T02:34:39.254Z,0.00
2022-10-11T02:35:39.239Z,0.00
2022-10-11T02:36:39.206Z,0.00
2022-10-11T02:37:39.185Z,0.00
2022-10-11T02:38:39.180Z,0.00
2022-10-11T02:39:39.141Z,0.00
2022-10-11T02:40:39.116Z,0.00
2022-10-11T02:41:39.097Z,0.00
2022-10-11T02:42:39.072Z,0.00
2022-10-11T02:43:39.057Z,0.00
2022-10-11T02:44:39.024Z,0.00
2022-10-11T02:45:39.017Z,0.00
2022-10-11T02:46:38.980Z,0.00
2022-10-11T02:47:38.962Z,0.00
2022-10-11T02:48:38.937Z,0.00
2022-10-11T02:49:38.928Z,0.00
2022-10-11T02:50:38.915Z,0.00
2022-10-11T02:51:38.867Z,0.00
2022-10-11T02:52:38.861Z,0.00
2022-10-11T02:53:38.825Z,0.00
2022-10-11T02:54:38.800Z,0.00
2022-10-11T02:55:38.787Z,0.00
2022-10-11T02:56:38.759Z,0.00
2022-10-11T02:57:38.736Z,0.00
2022-10-11T02:58:38.718Z,0.00
2022-10-11T02:59:38.693Z,0.00
2022-10-11T03:00:38.665Z,0.00
2022-10-11T03:01:38.718Z,0.00
2022-10-11T03:02:38.621Z,0.00
2022-10-11T03:03:38.596Z,0.00
2022-10-11T03:04:38.578Z,0.00
2022-10-11T03:05:38.556Z,0.00
2022-10-11T03:06:38.539Z,0.00
2022-10-11T03:07:38.507Z,0.00
2022-10-11T03:08:38.483Z,0.00
2022-10-11T03:09:38.458Z,0.00
2022-10-11T03:10:38.440Z,0.00
2022-10-11T03:11:38.416Z,0.00
2022-10-11T03:12:38.400Z,0.00
2022-10-11T03:13:38.367Z,0.00
2022-10-11T03:14:38.347Z,0.00
2022-10-11T03:15:38.329Z,0.00
2022-10-11T03:16:38.301Z,0.00
2022-10-11T03:17:38.275Z,0.00
2022-10-11T03:18:38.258Z,0.00
2022-10-11T03:19:38.231Z,0.00
2022-10-11T03:20:38.216Z,0.00
2022-10-11T03:21:38.191Z,0.00
2022-10-11T03:22:38.168Z,0.00
2022-10-11T03:23:38.139Z,0.00
2022-10-11T03:24:38.115Z,0.00
2022-10-11T03:25:38.095Z,0.00
2022-10-11T03:26:38.077Z,0.00
2022-10-11T03:27:38.052Z,0.00
2022-10-11T03:28:38.056Z,0.00
2022-10-11T03:29:38.009Z,0.00
2022-10-11T03:30:37.981Z,0.00
2022-10-11T03:31:37.954Z,0.00
2022-10-11T03:32:37.934Z,0.00
2022-10-11T03:33:37.911Z,0.00
2022-10-11T03:34:37.884Z,0.00
2022-10-11T03:35:37.865Z,0.00
2022-10-11T03:36:37.838Z,0.00
2022-10-11T03:37:37.818Z,0.00
2022-10-11T03:38:37.799Z,0.00
2022-10-11T03:39:37.774Z,0.00
2022-10-11T03:40:37.748Z,0.00
2022-10-11T03:41:37.726Z,0.00
2022-10-11T03:42:37.712Z,0.00
2022-10-11T03:43:37.682Z,0.00
2022-10-11T03:44:37.659Z,0.00
2022-10-11T03:45:37.646Z,0.00
2022-10-11T03:46:37.612Z,0.00
2022-10-11T03:47:37.587Z,0.00
2022-10-11T03:48:37.567Z,0.00
2022-10-11T03:49:41.305Z,0.00
2022-10-11T03:50:37.522Z,0.00
2022-10-11T03:51:37.496Z,0.00
2022-10-11T03:52:37.485Z,0.00
2022-10-11T03:53:37.443Z,0.00
2022-10-11T03:54:37.423Z,0.00
2022-10-11T03:55:37.409Z,0.00
2022-10-11T03:56:37.391Z,0.00
2022-10-11T03:57:37.365Z,0.00
2022-10-11T03:58:37.329Z,0.00
2022-10-11T03:59:37.312Z,0.00
2022-10-11T04:00:37.294Z,0.00
2022-10-11T04:01:37.310Z,0.00
2022-10-11T04:02:39.311Z,0.00
2022-10-11T04:03:37.212Z,0.00
2022-10-11T04:04:37.202Z,0.00
2022-10-11T04:05:37.171Z,0.00
2022-10-11T04:06:37.147Z,0.00
2022-10-11T04:07:37.122Z,0.00
2022-10-11T04:08:37.099Z,0.00
2022-10-11T04:09:37.077Z,0.00
2022-10-11T04:10:37.056Z,0.00
2022-10-11T04:11:37.024Z,0.00
2022-10-11T04:12:37.002Z,0.00
2022-10-11T04:13:36.981Z,0.00
2022-10-11T04:14:36.962Z,0.00
2022-10-11T04:15:36.934Z,0.00
2022-10-11T04:16:36.915Z,0.00
2022-10-11T04:17:36.889Z,0.00
2022-10-11T04:18:36.864Z,0.00
2022-10-11T04:19:36.839Z,0.00
2022-10-11T04:20:36.816Z,0.00
2022-10-11T04:21:36.792Z,0.00
2022-10-11T04:22:36.769Z,0.00
2022-10-11T04:23:36.743Z,0.00
2022-10-11T04:24:36.722Z,0.00
2022-10-11T04:25:36.696Z,0.00
2022-10-11T04:26:36.674Z,0.00
2022-10-11T04:27:36.652Z,0.00
2022-10-11T04:28:36.680Z,0.00
2022-10-11T04:29:36.602Z,0.00
2022-10-11T04:30:36.578Z,0.00
2022-10-11T04:31:36.556Z,0.00
2022-10-11T04:32:36.531Z,0.00
2022-10-11T04:33:36.514Z,0.00
2022-10-11T04:34:36.494Z,0.00
2022-10-11T04:35:36.461Z,0.00
2022-10-11T04:36:36.459Z,0.00
2022-10-11T04:37:36.418Z,0.00
2022-10-11T04:38:36.394Z,0.00
2022-10-11T04:39:36.376Z,0.00
2022-10-11T04:40:36.341Z,0.00
2022-10-11T04:41:36.314Z,0.00
2022-10-11T04:42:36.293Z,0.00
2022-10-11T04:43:36.276Z,0.00
2022-10-11T04:44:36.310Z,0.00
2022-10-11T04:45:36.227Z,0.00
2022-10-11T04:46:36.196Z,0.00
2022-10-11T04:47:36.181Z,0.00
2022-10-11T04:48:36.156Z,0.00
2022-10-11T04:49:36.127Z,0.00
2022-10-11T04:50:36.101Z,0.00
2022-10-11T04:51:36.080Z,0.00
2022-10-11T04:52:36.056Z,0.00
2022-10-11T04:53:36.029Z,0.00
2022-10-11T04:54:36.014Z,0.00
2022-10-11T04:55:35.985Z,0.00
2022-10-11T04:56:35.970Z,0.00
2022-10-11T04:57:35.948Z,0.00
2022-10-11T04:58:35.919Z,0.00
2022-10-11T04:59:35.884Z,0.00
2022-10-11T05:00:35.866Z,0.00
2022-10-11T05:01:35.900Z,0.00
2022-10-11T05:02:35.819Z,0.00
2022-10-11T05:03:35.794Z,0.00
2022-10-11T05:04:35.769Z,0.00
2022-10-11T05:05:35.744Z,0.00
2022-10-11T05:06:35.717Z,0.00
2022-10-11T05:07:35.704Z,0.00
2022-10-11T05:08:35.670Z,0.00
2022-10-11T05:09:35.647Z,0.00
2022-10-11T05:10:35.624Z,4.00
2022-10-11T05:11:35.602Z,4.00
2022-10-11T05:12:35.580Z,4.00
2022-10-11T05:13:35.562Z,4.00
2022-10-11T05:14:35.527Z,4.00
2022-10-11T05:15:35.501Z,4.00
2022-10-11T05:16:35.477Z,8.00
2022-10-11T05:17:35.451Z,8.00
2022-10-11T05:18:35.432Z,8.00
2022-10-11T05:19:35.408Z,12.00
2022-10-11T05:20:35.378Z,16.00
2022-10-11T05:21:35.369Z,20.00
2022-10-11T05:22:35.336Z,20.00
2022-10-11T05:23:35.320Z,24.00
2022-10-11T05:24:35.285Z,32.00
2022-10-11T05:25:35.259Z,36.00
2022-10-11T05:26:35.239Z,40.00
2022-10-11T05:27:35.213Z,48.00
2022-10-11T05:28:35.256Z,52.00
2022-10-11T05:29:35.163Z,64.00
2022-10-11T05:30:35.143Z,76.00
2022-10-11T05:31:35.116Z,92.00
2022-10-11T05:32:35.092Z,104.00
2022-10-11T05:33:35.090Z,116.00
2022-10-11T05:34:35.045Z,128.00
2022-10-11T05:35:35.020Z,144.00
2022-10-11T05:36:34.992Z,160.00
2022-10-11T05:37:34.970Z,180.00
2022-10-11T05:38:34.943Z,200.00
2022-10-11T05:39:34.950Z,224.00
2022-10-11T05:40:34.902Z,244.00
2022-10-11T05:41:34.872Z,264.00
2022-10-11T05:42:34.854Z,288.00
2022-10-11T05:43:34.824Z,316.00
2022-10-11T05:44:34.802Z,332.00
2022-10-11T05:45:34.786Z,352.00
2022-10-11T05:46:34.753Z,372.00
2022-10-11T05:47:34.727Z,396.00
2022-10-11T05:48:34.702Z,424.00
2022-10-11T05:49:34.681Z,452.00
2022-10-11T05:50:34.659Z,484.00
2022-10-11T05:51:34.636Z,520.00
2022-10-11T05:52:34.610Z,564.00
2022-10-11T05:53:34.583Z,608.00
2022-10-11T05:54:34.558Z,652.00
2022-10-11T05:55:34.537Z,692.00
2022-10-11T05:56:34.512Z,720.00
2022-10-11T05:57:34.485Z,736.00
2022-10-11T05:58:34.464Z,760.00
2022-10-11T05:59:34.449Z,784.00
2022-10-11T06:00:34.414Z,812.00
2022-10-11T06:01:34.456Z,836.00
2022-10-11T06:02:34.371Z,868.00
2022-10-11T06:03:34.351Z,896.00
2022-10-11T06:04:34.318Z,920.00
2022-10-11T06:05:34.302Z,956.00
2022-10-11T06:06:34.276Z,992.00
2022-10-11T06:07:34.258Z,1040.00
2022-10-11T06:08:34.221Z,1100.00
2022-10-11T06:09:34.198Z,1164.00
2022-10-11T06:10:34.195Z,1224.00
2022-10-11T06:11:34.147Z,1280.00
2022-10-11T06:12:34.134Z,1324.00
2022-10-11T06:13:34.148Z,1356.00
2022-10-11T06:14:34.120Z,1364.00
2022-10-11T06:15:34.054Z,1384.00
2022-10-11T06:16:34.030Z,1440.00
2022-10-11T06:17:34.011Z,1500.00
2022-10-11T06:18:33.981Z,1548.00
2022-10-11T06:19:33.956Z,1584.00
2022-10-11T06:20:33.936Z,1684.00
2022-10-11T06:21:33.912Z,1780.00
2022-10-11T06:22:33.885Z,1824.00
2022-10-11T06:23:33.863Z,1836.00
2022-10-11T06:24:33.855Z,1948.00
2022-10-11T06:25:33.821Z,1932.00
2022-10-11T06:26:33.815Z,1816.00
2022-10-11T06:27:33.768Z,1856.00
2022-10-11T06:28:33.793Z,1848.00
2022-10-11T06:29:33.731Z,1876.00
2022-10-11T06:30:33.714Z,2072.00
2022-10-11T06:31:33.673Z,2156.00
2022-10-11T06:32:33.648Z,2096.00
2022-10-11T06:33:33.634Z,2104.00
2022-10-11T06:34:33.599Z,2112.00
2022-10-11T06:35:33.581Z,2088.00
2022-10-11T06:36:33.554Z,1956.00
2022-10-11T06:37:33.530Z,1940.00
2022-10-11T06:38:33.522Z,2000.00
2022-10-11T06:39:33.497Z,1980.00
2022-10-11T06:40:33.460Z,2060.00
2022-10-11T06:41:33.457Z,2100.00
2022-10-11T06:42:33.409Z,2176.00
2022-10-11T06:43:33.403Z,2204.00
2022-10-11T06:44:33.365Z,2164.00
2022-10-11T06:45:33.340Z,2236.00
2022-10-11T06:46:33.329Z,2456.00
2022-10-11T06:47:33.291Z,2512.00
2022-10-11T06:48:33.271Z,2304.00
2022-10-11T06:49:33.243Z,2092.00
2022-10-11T06:50:58.046Z,2028.00
2022-10-11T06:51:33.204Z,2068.00
2022-10-11T06:52:33.178Z,2472.00
2022-10-11T06:53:33.154Z,2848.00
2022-10-11T06:54:33.129Z,2728.00
2022-10-11T06:55:33.108Z,3092.00
2022-10-11T06:56:33.081Z,3332.00
2022-10-11T06:57:33.059Z,3388.00
2022-10-11T06:58:33.039Z,3472.00
2022-10-11T06:59:33.013Z,3920.00
2022-10-11T07:00:32.991Z,4688.00
2022-10-11T07:01:33.026Z,5500.00
2022-10-11T07:02:32.942Z,5940.00
2022-10-11T07:03:32.925Z,6388.00
2022-10-11T07:04:32.894Z,6412.00
2022-10-11T07:05:32.888Z,6432.00
2022-10-11T07:06:32.847Z,6124.00
2022-10-11T07:07:32.828Z,5604.00
2022-10-11T07:08:32.803Z,5052.00
2022-10-11T07:09:32.781Z,4488.00
2022-10-11T07:10:32.755Z,4168.00
2022-10-11T07:11:32.735Z,3944.00
2022-10-11T07:12:32.709Z,3836.00
2022-10-11T07:13:32.698Z,3808.00
2022-10-11T07:14:32.665Z,3828.00
2022-10-11T07:15:32.662Z,3800.00
2022-10-11T07:16:32.619Z,3700.00
2022-10-11T07:17:32.593Z,3664.00
2022-10-11T07:18:32.573Z,3704.00
2022-10-11T07:19:32.548Z,3868.00
2022-10-11T07:20:32.541Z,4092.00
2022-10-11T07:21:32.512Z,4268.00
2022-10-11T07:22:32.480Z,4168.00
2022-10-11T07:23:32.459Z,4156.00
2022-10-11T07:24:33.168Z,4232.00
2022-10-11T07:25:32.412Z,4392.00
2022-10-11T07:26:37.684Z,4416.00
2022-10-11T07:27:32.369Z,4296.00
2022-10-11T07:28:32.403Z,4200.00
2022-10-11T07:29:32.317Z,4248.00
2022-10-11T07:30:32.300Z,4412.00
2022-10-11T07:31:32.274Z,4540.00
2022-10-11T07:32:32.254Z,4456.00
2022-10-11T07:33:32.226Z,4412.00
2022-10-11T07:34:32.203Z,4604.00
2022-10-11T07:35:32.180Z,4856.00
2022-10-11T07:36:32.158Z,4984.00
2022-10-11T07:37:32.133Z,5172.00
2022-10-11T07:38:32.112Z,5368.00
2022-10-11T07:39:32.086Z,5228.00
2022-10-11T07:40:32.062Z,5044.00
2022-10-11T07:41:32.047Z,4936.00
2022-10-11T07:42:32.019Z,4828.00
2022-10-11T07:43:32.016Z,5172.00
2022-10-11T07:44:31.969Z,5696.00
2022-10-11T07:45:31.961Z,5980.00
2022-10-11T07:46:31.926Z,6036.00
2022-10-11T07:47:31.900Z,6124.00
2022-10-11T07:48:31.877Z,6256.00
2022-10-11T07:49:31.853Z,6480.00
2022-10-11T07:50:31.827Z,6716.00
2022-10-11T07:51:31.845Z,6580.00
2022-10-11T07:52:31.791Z,6324.00
2022-10-11T07:53:31.764Z,6040.00
2022-10-11T07:54:31.734Z,5816.00
2022-10-11T07:55:31.724Z,5680.00
2022-10-11T07:56:31.690Z,5268.00
2022-10-11T07:57:31.669Z,5288.00
2022-10-11T07:58:31.645Z,5516.00
2022-10-11T07:59:31.621Z,5696.00
2022-10-11T08:00:31.598Z,5720.00
2022-10-11T08:01:31.684Z,5604.00
2022-10-11T08:02:31.556Z,5544.00
2022-10-11T08:03:31.559Z,5536.00
2022-10-11T08:04:31.520Z,5456.00
2022-10-11T08:05:31.490Z,5100.00
2022-10-11T08:06:31.463Z,5024.00
2022-10-11T08:07:31.435Z,5332.00
2022-10-11T08:08:31.426Z,5916.00
2022-10-11T08:09:31.402Z,6272.00
2022-10-11T08:10:31.381Z,6420.00
2022-10-11T08:11:31.348Z,6400.00
2022-10-11T08:12:31.318Z,7004.00
2022-10-11T08:13:31.297Z,7388.00
2022-10-11T08:14:31.276Z,7080.00
2022-10-11T08:15:31.250Z,6716.00
2022-10-11T08:16:31.232Z,6500.00
2022-10-11T08:17:31.216Z,6664.00
2022-10-11T08:18:31.183Z,6836.00
2022-10-11T08:19:31.161Z,7096.00
2022-10-11T08:20:31.222Z,7692.00
2022-10-11T08:21:31.129Z,8532.00
2022-10-11T08:22:31.092Z,9244.00
2022-10-11T08:23:31.068Z,9176.00
2022-10-11T08:24:35.885Z,8604.00
2022-10-11T08:25:31.020Z,8868.00
2022-10-11T08:26:31.007Z,9228.00
2022-10-11T08:27:30.979Z,9392.00
2022-10-11T08:28:30.964Z,9280.00
2022-10-11T08:29:30.929Z,9236.00
2022-10-11T08:30:30.915Z,9024.00
2022-10-11T08:31:30.886Z,9272.00
2022-10-11T08:32:30.866Z,9500.00
2022-10-11T08:33:30.840Z,9236.00
2022-10-11T08:34:30.813Z,9032.00
2022-10-11T08:35:30.797Z,8948.00
2022-10-11T08:36:30.770Z,9076.00
2022-10-11T08:37:30.750Z,8984.00
2022-10-11T08:38:30.724Z,9080.00
2022-10-11T08:39:30.704Z,9316.00
2022-10-11T08:40:35.159Z,9632.00
2022-10-11T08:41:30.665Z,9816.00
2022-10-11T08:42:30.659Z,10660.00
2022-10-11T08:43:30.623Z,11408.00
2022-10-11T08:44:46.159Z,11700.00
2022-10-11T08:45:30.577Z,12464.00
2022-10-11T08:46:30.552Z,13956.00
2022-10-11T08:47:30.535Z,13088.00
2022-10-11T08:48:30.507Z,12600.00
2022-10-11T08:49:30.486Z,11976.00
2022-10-11T08:50:30.468Z,10556.00
2022-10-11T08:51:30.440Z,10388.00
2022-10-11T08:52:30.417Z,9792.00
2022-10-11T08:53:30.399Z,9928.00
2022-10-11T08:54:30.376Z,10108.00
2022-10-11T08:55:30.355Z,10036.00
2022-10-11T08:56:30.335Z,9796.00
2022-10-11T08:57:30.317Z,10580.00
2022-10-11T08:58:30.299Z,11988.00
2022-10-11T08:59:30.277Z,14316.00
2022-10-11T09:00:30.265Z,40928.00
2022-10-11T09:01:30.264Z,14304.00
2022-10-11T09:02:43.916Z,14452.00
2022-10-11T09:03:30.192Z,15232.00
2022-10-11T09:04:30.166Z,15260.00
2022-10-11T09:05:30.149Z,15236.00
2022-10-11T09:06:30.127Z,15652.00
2022-10-11T09:07:30.101Z,16788.00
2022-10-11T09:08:30.093Z,16352.00
2022-10-11T09:09:30.060Z,15464.00
2022-10-11T09:10:30.039Z,24960.00
2022-10-11T09:11:30.028Z,15020.00
2022-10-11T09:12:33.489Z,13316.00
2022-10-11T09:13:29.980Z,13932.00
2022-10-11T09:14:29.956Z,13816.00
2022-10-11T09:15:29.937Z,14184.00
2022-10-11T09:16:29.918Z,18688.00
2022-10-11T09:17:29.901Z,24416.00
2022-10-11T09:18:29.881Z,17344.00
2022-10-11T09:19:29.877Z,15444.00
2022-10-11T09:20:29.832Z,14584.00
2022-10-11T09:21:29.819Z,31808.00
2022-10-11T09:22:30.871Z,28768.00
2022-10-11T09:23:29.773Z,35520.00
2022-10-11T09:24:29.752Z,16476.00
2022-10-11T09:25:29.736Z,17536.00
2022-10-11T09:26:29.719Z,18880.00
2022-10-11T09:27:57.354Z,19904.00
2022-10-11T09:28:29.742Z,23456.00
2022-10-11T09:29:29.658Z,44832.00
2022-10-11T09:30:29.655Z,26016.00
2022-10-11T09:31:29.659Z,34272.00
2022-10-11T09:32:29.609Z,33280.00
2022-10-11T09:33:29.583Z,47872.00
2022-10-11T09:34:29.558Z,35392.00
2022-10-11T09:35:29.550Z,21792.00
2022-10-11T09:36:29.523Z,19712.00
2022-10-11T09:37:29.506Z,27168.00
2022-10-11T09:38:29.482Z,32064.00
2022-10-11T09:39:29.466Z,19776.00
2022-10-11T09:40:29.447Z,19328.00
2022-10-11T09:41:29.430Z,17568.00
2022-10-11T09:42:29.406Z,16984.00
2022-10-11T09:43:29.393Z,16448.00
2022-10-11T09:44:29.444Z,27520.00
2022-10-11T09:45:29.364Z,14188.00
2022-10-11T09:46:29.332Z,13064.00
2022-10-11T09:47:29.313Z,14632.00
2022-10-11T09:48:29.295Z,20576.00
2022-10-11T09:49:29.279Z,16348.00
2022-10-11T09:50:29.258Z,29696.00
2022-10-11T09:51:29.250Z,37120.00
2022-10-11T09:52:29.219Z,17108.00
2022-10-11T09:53:29.199Z,31264.00
2022-10-11T09:54:29.184Z,23488.00
2022-10-11T09:55:29.159Z,18848.00
2022-10-11T09:56:29.145Z,15128.00
2022-10-11T09:57:29.126Z,14476.00
2022-10-11T09:58:29.103Z,12428.00
2022-10-11T09:59:29.101Z,12884.00
2022-10-11T10:00:29.081Z,33472.00
2022-10-11T10:01:29.133Z,37344.00
2022-10-11T10:02:29.024Z,26464.00
2022-10-11T10:03:29.009Z,21984.00
2022-10-11T10:04:28.988Z,19712.00
2022-10-11T10:05:28.972Z,16108.00
2022-10-11T10:06:28.961Z,14236.00
2022-10-11T10:07:28.932Z,19744.00
2022-10-11T10:08:28.917Z,19584.00
2022-10-11T10:09:28.892Z,21664.00
2022-10-11T10:10:28.882Z,22592.00
2022-10-11T10:11:28.858Z,25376.00
2022-10-11T10:12:28.837Z,30720.00
2022-10-11T10:13:28.820Z,32032.00
2022-10-11T10:14:28.801Z,27584.00
2022-10-11T10:15:28.781Z,31776.00
2022-10-11T10:16:28.852Z,26592.00
2022-10-11T10:17:28.746Z,28256.00
2022-10-11T10:18:28.727Z,21888.00
2022-10-11T10:19:28.713Z,22080.00
2022-10-11T10:20:28.697Z,24096.00
2022-10-11T10:21:28.672Z,23456.00
2022-10-11T10:22:28.652Z,23136.00
2022-10-11T10:23:28.638Z,26624.00
2022-10-11T10:24:28.617Z,25632.00
2022-10-11T10:25:28.600Z,24608.00
2022-10-11T10:26:28.583Z,22208.00
2022-10-11T10:27:28.571Z,21280.00
2022-10-11T10:28:28.622Z,20992.00
2022-10-11T10:29:28.532Z,21728.00
2022-10-11T10:30:33.072Z,22240.00
2022-10-11T10:31:28.496Z,21632.00
2022-10-11T10:32:28.479Z,22944.00
2022-10-11T10:33:28.456Z,23232.00
2022-10-11T10:34:28.445Z,23904.00
2022-10-11T10:35:28.431Z,24032.00
2022-10-11T10:36:28.406Z,22432.00
2022-10-11T10:37:28.392Z,20416.00
2022-10-11T10:38:28.370Z,18624.00
2022-10-11T10:39:28.358Z,20800.00
2022-10-11T10:40:28.339Z,21888.00
2022-10-11T10:41:28.325Z,20992.00
2022-10-11T10:42:28.305Z,20960.00
2022-10-11T10:43:28.290Z,19616.00
2022-10-11T10:44:28.272Z,19008.00
2022-10-11T10:45:28.251Z,19008.00
2022-10-11T10:46:28.241Z,20224.00
2022-10-11T10:47:28.222Z,22336.00
2022-10-11T10:48:28.200Z,23680.00
2022-10-11T10:49:52.559Z,24768.00
2022-10-11T10:50:28.171Z,26336.00
2022-10-11T10:51:28.151Z,28224.00
2022-10-11T10:52:28.129Z,26016.00
2022-10-11T10:53:28.118Z,38496.00
2022-10-11T10:54:28.097Z,39488.00
2022-10-11T10:55:28.081Z,35744.00
2022-10-11T10:56:28.067Z,30528.00
2022-10-11T10:57:28.057Z,20896.00
2022-10-11T10:58:28.035Z,21248.00
2022-10-11T10:59:28.018Z,23840.00
2022-10-11T11:00:28.002Z,23232.00
2022-10-11T11:01:28.063Z,17560.00
2022-10-11T11:02:40.455Z,21728.00
2022-10-11T11:03:27.959Z,22624.00
2022-10-11T11:04:27.950Z,22528.00
2022-10-11T11:05:27.924Z,19840.00
2022-10-11T11:06:28.992Z,19936.00
2022-10-11T11:07:27.938Z,22848.00
2022-10-11T11:08:27.876Z,22400.00
2022-10-11T11:09:27.867Z,22784.00
2022-10-11T11:10:27.854Z,21344.00
2022-10-11T11:11:27.831Z,23616.00
2022-10-11T11:12:27.823Z,23392.00
2022-10-11T11:13:27.807Z,23520.00
2022-10-11T11:14:27.795Z,22432.00
2022-10-11T11:15:32.481Z,22688.00
2022-10-11T11:16:27.757Z,21696.00
2022-10-11T11:17:27.748Z,21952.00
2022-10-11T11:18:27.749Z,21440.00
2022-10-11T11:19:27.719Z,21376.00
2022-10-11T11:20:27.709Z,20608.00
2022-10-11T11:21:27.724Z,21632.00
2022-10-11T11:22:32.481Z,22656.00
2022-10-11T11:23:27.665Z,23552.00
2022-10-11T11:24:27.656Z,21056.00
2022-10-11T11:25:27.639Z,21216.00
2022-10-11T11:26:27.626Z,20576.00
2022-10-11T11:27:27.616Z,19424.00
2022-10-11T11:28:27.659Z,19072.00
2022-10-11T11:29:27.592Z,19136.00
2022-10-11T11:30:27.586Z,20416.00
2022-10-11T11:31:27.573Z,20288.00
2022-10-11T11:32:27.556Z,19328.00
2022-10-11T11:33:27.544Z,20672.00
2022-10-11T11:34:27.549Z,21696.00
2022-10-11T11:35:27.517Z,22400.00
2022-10-11T11:36:27.526Z,23136.00
2022-10-11T11:37:27.490Z,24512.00
2022-10-11T11:38:29.765Z,14004.00
2022-10-11T11:39:27.468Z,13288.00
2022-10-11T11:40:27.457Z,26336.00
2022-10-11T11:41:27.462Z,18048.00
2022-10-11T11:42:27.438Z,14508.00
2022-10-11T11:43:27.422Z,16452.00
2022-10-11T11:44:27.801Z,23552.00
2022-10-11T11:45:27.395Z,23712.00
2022-10-11T11:46:27.384Z,24864.00
2022-10-11T11:47:27.372Z,24704.00
2022-10-11T11:48:27.356Z,24384.00
2022-10-11T11:49:27.348Z,23712.00
2022-10-11T11:50:28.688Z,23488.00
2022-10-11T11:51:30.484Z,23584.00
2022-10-11T11:52:27.315Z,24064.00
2022-10-11T11:53:27.308Z,24000.00
2022-10-11T11:54:27.290Z,20704.00
2022-10-11T11:55:27.296Z,15264.00
2022-10-11T11:56:27.267Z,22752.00
2022-10-11T11:57:27.254Z,22912.00
2022-10-11T11:58:27.242Z,21952.00
2022-10-11T11:59:27.233Z,21152.00
2022-10-11T12:00:27.218Z,22848.00
2022-10-11T12:01:31.102Z,23200.00
2022-10-11T12:02:27.320Z,22880.00
2022-10-11T12:03:27.189Z,22560.00
2022-10-11T12:04:27.174Z,22976.00
2022-10-11T12:05:27.174Z,22592.00
2022-10-11T12:06:27.153Z,21952.00
2022-10-11T12:07:27.145Z,20864.00
2022-10-11T12:08:27.137Z,19840.00
2022-10-11T12:09:27.120Z,18816.00
2022-10-11T12:10:27.169Z,21120.00
2022-10-11T12:11:30.491Z,22304.00
2022-10-11T12:12:27.092Z,22624.00
2022-10-11T12:13:32.011Z,22592.00
2022-10-11T12:14:27.065Z,22336.00
2022-10-11T12:15:27.116Z,21504.00
2022-10-11T12:16:27.044Z,21376.00
2022-10-11T12:17:27.040Z,21344.00
2022-10-11T12:18:27.029Z,21120.00
2022-10-11T12:19:27.012Z,20672.00
2022-10-11T12:20:27.003Z,19872.00
2022-10-11T12:21:26.995Z,19296.00
2022-10-11T12:22:26.983Z,18880.00
2022-10-11T12:23:26.973Z,19040.00
2022-10-11T12:24:27.014Z,18336.00
2022-10-11T12:25:26.958Z,18560.00
2022-10-11T12:26:26.952Z,18368.00
2022-10-11T12:27:26.931Z,18688.00
2022-10-11T12:28:26.958Z,18368.00
2022-10-11T12:29:29.012Z,18688.00